Time;durP1;ratioP1;P1;durP2;ratioP2;P2;SDS_P1;SDS_P2;PMS_P1;PMS_P2;Temp;Humidity;BMP_temperature;BMP_pressure;BME280_temperature;BME280_humidity;BME280_pressure;Samples;Min_cycle;Max_cycle;Signal;HPM_P1;HPM_P2
2023/03/10 00:01:24;;;;;;;1.30;0.70;;;13.30;78.80;;;;;;5017733;28;20075;-48
2023/03/10 00:03:52;;;;;;;2.15;0.98;;;13.30;78.70;;;;;;5023965;28;20041;-47
2023/03/10 00:06:26;;;;;;;1.17;1.02;;;13.40;78.70;;;;;;5028542;28;20120;-49
2023/03/10 00:08:55;;;;;;;1.63;0.93;;;13.40;78.70;;;;;;5028335;28;20047;-47
2023/03/10 00:11:22;;;;;;;0.93;0.82;;;13.40;78.60;;;;;;4990997;28;20157;-50
2023/03/10 00:13:49;;;;;;;1.98;0.70;;;13.40;78.60;;;;;;5023197;28;20049;-44
2023/03/10 00:16:27;;;;;;;2.50;0.88;;;13.50;78.50;;;;;;5022448;28;20038;-50
2023/03/10 00:18:56;;;;;;;1.02;0.80;;;13.50;78.50;;;;;;5022023;28;20108;-48
2023/03/10 00:21:25;;;;;;;1.10;0.77;;;13.50;78.30;;;;;;5001083;28;20050;-49
2023/03/10 00:23:53;;;;;;;1.45;0.50;;;13.50;78.20;;;;;;5024661;28;20040;-46
2023/03/10 00:26:20;;;;;;;1.08;0.60;;;13.50;78.20;;;;;;5029712;28;20049;-46
2023/03/10 00:28:50;;;;;;;1.38;0.93;;;13.50;78.10;;;;;;5025039;28;20038;-49
2023/03/10 00:31:19;;;;;;;1.45;0.80;;;13.40;78.00;;;;;;4994007;28;20089;-47
2023/03/10 00:33:49;;;;;;;;;;;13.50;78.10;;;;;;5021719;28;20124;-46
2023/03/10 00:36:24;;;;;;;0.77;0.63;;;13.50;78.30;;;;;;5024997;28;19971;-49
2023/03/10 00:39:00;;;;;;;0.57;0.28;;;13.50;77.70;;;;;;4987494;28;20042;-50
2023/03/10 00:41:35;;;;;;;0.88;0.55;;;13.40;77.60;;;;;;5007022;28;20080;-49
2023/03/10 00:44:09;;;;;;;0.68;0.43;;;13.40;77.70;;;;;;4996828;28;20046;-47
2023/03/10 00:46:37;;;;;;;0.98;0.32;;;13.40;77.80;;;;;;5017452;28;20092;-47
2023/03/10 00:49:12;;;;;;;1.35;0.57;;;13.30;77.60;;;;;;5013891;28;20053;-46
2023/03/10 00:51:39;;;;;;;0.95;0.32;;;13.30;77.70;;;;;;5010635;28;20062;-46
2023/03/10 00:54:06;;;;;;;0.47;0.40;;;13.30;77.70;;;;;;5015225;28;20411;-48
2023/03/10 00:56:37;;;;;;;0.98;0.50;;;13.30;77.80;;;;;;5007252;28;20590;-48
2023/03/10 00:59:06;;;;;;;1.23;0.60;;;13.20;77.80;;;;;;5023779;28;20053;-47
2023/03/10 01:01:36;;;;;;;1.60;0.50;;;13.20;77.80;;;;;;5007314;28;20061;-46
2023/03/10 01:04:12;;;;;;;0.80;0.40;;;13.20;77.90;;;;;;5030143;28;20485;-50
2023/03/10 01:06:39;;;;;;;0.80;0.55;;;13.20;77.90;;;;;;5028582;28;20041;-50
2023/03/10 01:09:09;;;;;;;1.45;0.45;;;13.20;77.90;;;;;;5014164;28;20037;-47
2023/03/10 01:11:36;;;;;;;1.25;0.70;;;13.20;78.00;;;;;;4991934;28;20049;-48
2023/03/10 01:14:06;;;;;;;1.13;0.90;;;13.20;78.10;;;;;;5007805;28;20052;-49
2023/03/10 01:16:35;;;;;;;1.73;0.68;;;13.20;78.20;;;;;;5006077;28;20049;-46
2023/03/10 01:19:04;;;;;;;0.77;0.70;;;13.20;78.20;;;;;;4989634;28;20124;-50
2023/03/10 01:21:33;;;;;;;1.67;0.80;;;13.10;78.10;;;;;;4990900;28;20050;-48
2023/03/10 01:24:01;;;;;;;2.30;1.00;;;13.20;78.30;;;;;;5001531;28;20046;-48
2023/03/10 01:26:33;;;;;;;2.20;1.05;;;13.20;78.40;;;;;;5007837;28;20054;-47
2023/03/10 01:29:01;;;;;;;0.75;0.70;;;13.20;78.40;;;;;;5009691;28;20128;-47
2023/03/10 01:31:30;;;;;;;1.95;0.80;;;13.20;78.50;;;;;;4989408;28;20050;-47
2023/03/10 01:33:58;;;;;;;1.80;0.55;;;13.10;78.50;;;;;;4991145;28;20124;-46
2023/03/10 01:36:26;;;;;;;0.75;0.60;;;13.10;78.50;;;;;;5002079;28;20526;-46
2023/03/10 01:38:55;;;;;;;1.15;0.70;;;13.10;78.60;;;;;;4988337;28;20050;-45
2023/03/10 01:41:27;;;;;;;2.60;0.82;;;13.10;78.70;;;;;;5013608;28;20038;-46
2023/03/10 01:43:56;;;;;;;1.63;0.98;;;13.10;78.80;;;;;;4990355;28;20065;-47
2023/03/10 01:46:26;;;;;;;1.60;0.95;;;13.10;78.90;;;;;;5020307;28;20053;-46
2023/03/10 01:49:32;;;;;;;3.78;0.95;;;13.00;79.10;;;;;;5010548;28;20058;-47
2023/03/10 01:52:19;;;;;;;1.52;0.80;;;13.10;79.60;;;;;;4986139;28;20096;-46
2023/03/10 01:54:59;;;;;;;3.67;1.00;;;13.10;79.40;;;;;;5009224;28;20095;-50
2023/03/10 01:57:31;;;;;;;1.90;1.00;;;13.00;79.30;;;;;;5027566;28;20458;-49
2023/03/10 01:59:59;;;;;;;2.17;1.00;;;13.00;79.30;;;;;;5002751;28;20496;-45
2023/03/10 02:02:34;;;;;;;1.02;0.77;;;13.00;79.30;;;;;;4986701;28;20044;-46
2023/03/10 02:05:01;;;;;;;1.10;0.43;;;13.00;79.40;;;;;;5012749;28;20053;-49
2023/03/10 02:07:34;;;;;;;2.97;1.13;;;13.00;79.40;;;;;;5007317;28;20046;-45
2023/03/10 02:10:02;;;;;;;2.08;0.80;;;13.00;79.50;;;;;;4993085;28;20057;-50
2023/03/10 02:12:31;;;;;;;0.93;0.60;;;13.00;79.50;;;;;;5007636;28;20046;-47
2023/03/10 02:14:58;;;;;;;1.58;0.68;;;13.00;79.70;;;;;;5007370;28;20046;-46
2023/03/10 02:17:26;;;;;;;1.98;0.77;;;13.00;79.70;;;;;;5013299;28;20034;-47
2023/03/10 02:19:59;;;;;;;5.50;0.65;;;13.00;79.70;;;;;;5011862;28;20125;-47
2023/03/10 02:22:28;;;;;;;1.42;0.68;;;12.90;79.70;;;;;;4991615;28;20074;-48
2023/03/10 02:25:02;;;;;;;0.80;0.38;;;12.90;79.70;;;;;;5013111;28;20075;-47
2023/03/10 02:27:38;;;;;;;2.83;0.70;;;13.00;79.80;;;;;;5032539;28;20045;-46
2023/03/10 02:30:34;;;;;;;1.10;0.70;;;12.90;79.60;;;;;;5015679;28;20048;-46
2023/03/10 02:33:05;;;;;;;0.57;0.40;;;12.90;79.60;;;;;;4994515;28;20545;-48
2023/03/10 02:35:36;;;;;;;1.02;0.47;;;12.90;79.50;;;;;;5010868;28;20133;-45
2023/03/10 02:38:08;;;;;;;4.13;0.60;;;13.00;79.50;;;;;;5002643;28;20509;-48
2023/03/10 02:40:50;;;;;;;3.13;0.88;;;12.90;79.50;;;;;;4992074;28;20046;-47
2023/03/10 02:43:32;;;;;;;1.85;0.93;;;13.00;79.60;;;;;;4999900;28;20466;-46
2023/03/10 02:46:13;;;;;;;1.88;1.02;;;12.90;79.70;;;;;;5009951;28;20576;-46
2023/03/10 02:48:46;;;;;;;1.35;0.73;;;12.90;79.40;;;;;;5012035;28;20168;-48
2023/03/10 02:51:29;;;;;;;1.85;0.80;;;12.90;79.30;;;;;;4998222;28;20054;-50
2023/03/10 02:54:00;;;;;;;1.20;0.50;;;12.90;79.40;;;;;;5030312;28;20102;-50
2023/03/10 02:56:33;;;;;;;2.65;0.75;;;12.90;79.30;;;;;;5010844;28;20077;-49
2023/03/10 02:59:01;;;;;;;1.98;0.80;;;12.90;79.20;;;;;;5021254;28;20042;-46
2023/03/10 03:01:31;;;;;;;1.20;0.70;;;12.90;79.20;;;;;;4994179;28;20042;-45
2023/03/10 03:03:59;;;;;;;1.52;0.70;;;12.90;79.20;;;;;;5011723;28;20080;-45
2023/03/10 03:06:29;;;;;;;1.90;0.90;;;12.90;79.10;;;;;;4998368;28;20061;-49
2023/03/10 03:08:58;;;;;;;2.63;0.57;;;12.90;79.10;;;;;;5010964;28;20042;-49
2023/03/10 03:11:30;;;;;;;2.13;0.77;;;12.90;79.10;;;;;;4991418;28;20054;-48
2023/03/10 03:13:57;;;;;;;1.88;0.90;;;12.90;79.10;;;;;;5011777;28;20049;-45
2023/03/10 03:16:31;;;;;;;2.38;1.00;;;12.90;79.20;;;;;;5008775;28;20379;-46
2023/03/10 03:19:01;;;;;;;1.88;1.00;;;12.90;79.20;;;;;;5010270;28;20041;-47
2023/03/10 03:21:30;;;;;;;1.13;0.80;;;12.90;79.20;;;;;;5003167;28;20137;-46
2023/03/10 03:24:00;;;;;;;2.13;1.08;;;12.90;79.30;;;;;;5012389;28;20419;-46
2023/03/10 03:26:29;;;;;;;2.65;1.20;;;12.80;79.20;;;;;;5013370;28;20518;-46
2023/03/10 03:29:09;;;;;;;4.00;1.15;;;12.80;79.80;;;;;;4999159;28;20045;-44
2023/03/10 03:31:36;;;;;;;2.25;1.33;;;12.80;79.10;;;;;;4981584;28;20046;-48
2023/03/10 03:34:10;;;;;;;;;;;12.80;79.10;;;;;;5003498;28;20037;-47
2023/03/10 03:36:42;;;;;;;1.02;0.70;;;12.90;79.30;;;;;;4993664;28;20020;-48
2023/03/10 03:39:16;;;;;;;1.17;0.80;;;12.90;78.80;;;;;;5007433;28;20037;-45
2023/03/10 03:41:45;;;;;;;1.13;0.90;;;12.80;78.80;;;;;;5004993;28;20414;-46
2023/03/10 03:44:12;;;;;;;1.95;0.90;;;12.80;78.90;;;;;;5018009;28;20069;-48
2023/03/10 03:46:41;;;;;;;1.63;0.70;;;12.80;79.00;;;;;;5004212;28;20103;-47
2023/03/10 03:49:10;;;;;;;3.45;1.08;;;12.80;79.00;;;;;;4995354;28;20045;-45
2023/03/10 03:51:42;;;;;;;2.08;1.10;;;12.80;79.10;;;;;;5004165;28;20053;-47
2023/03/10 03:54:09;;;;;;;3.50;0.93;;;12.80;79.10;;;;;;5010923;28;20029;-46
2023/03/10 03:56:38;;;;;;;2.00;0.90;;;12.80;79.00;;;;;;5006630;28;20056;-47
2023/03/10 03:59:07;;;;;;;6.53;1.25;;;12.80;79.00;;;;;;5003566;28;20033;-48
2023/03/10 04:01:39;;;;;;;2.15;1.13;;;12.80;78.90;;;;;;4993795;28;20045;-50
2023/03/10 04:04:08;;;;;;;3.05;1.35;;;12.80;78.80;;;;;;5009942;28;20092;-46
2023/03/10 04:06:35;;;;;;;4.63;1.20;;;12.80;78.60;;;;;;4999542;28;20140;-46
2023/03/10 04:09:09;;;;;;;3.85;1.17;;;12.80;78.50;;;;;;5001276;28;20085;-45
2023/03/10 04:11:43;;;;;;;4.47;0.90;;;12.80;78.30;;;;;;5007280;28;20038;-50
2023/03/10 04:14:15;;;;;;;4.38;1.15;;;12.80;78.30;;;;;;5009121;28;20068;-44
2023/03/10 04:16:44;;;;;;;3.63;0.95;;;12.80;78.20;;;;;;5026592;28;20383;-47
2023/03/10 04:19:11;;;;;;;2.83;1.20;;;12.80;78.10;;;;;;4987597;28;20041;-46
2023/03/10 04:21:41;;;;;;;6.32;1.10;;;12.80;78.10;;;;;;5004184;28;20505;-46
2023/03/10 04:24:10;;;;;;;5.13;1.27;;;12.80;78.00;;;;;;5004234;28;20046;-46
2023/03/10 04:26:36;;;;;;;4.70;0.95;;;12.80;78.10;;;;;;5024925;28;20042;-48
2023/03/10 04:29:04;;;;;;;4.97;1.23;;;12.80;78.20;;;;;;5001953;28;20049;-46
2023/03/10 04:31:35;;;;;;;1.98;0.82;;;12.80;78.20;;;;;;5004177;28;20588;-46
2023/03/10 04:34:08;;;;;;;4.90;1.20;;;12.80;78.00;;;;;;4995973;28;20160;-46
2023/03/10 04:36:37;;;;;;;5.50;1.23;;;12.80;78.00;;;;;;5029302;28;20112;-50
2023/03/10 04:39:05;;;;;;;3.55;1.27;;;12.80;78.00;;;;;;5007472;28;20045;-48
2023/03/10 04:41:33;;;;;;;3.80;1.10;;;12.80;78.00;;;;;;5007343;28;20037;-48
2023/03/10 04:44:02;;;;;;;3.60;2.03;;;12.80;78.00;;;;;;5028675;28;20045;-46
2023/03/10 04:46:51;;;;;;;5.72;2.15;;;12.70;78.00;;;;;;4995513;28;20054;-47
2023/03/10 04:49:19;;;;;;;3.58;1.40;;;12.80;77.90;;;;;;4996596;28;20060;-45
2023/03/10 04:51:48;;;;;;;6.70;1.73;;;12.70;77.90;;;;;;5007392;28;20077;-48
2023/03/10 04:54:18;;;;;;;4.00;1.75;;;12.70;77.80;;;;;;5009287;28;20076;-46
2023/03/10 04:56:47;;;;;;;2.15;1.13;;;12.70;77.80;;;;;;5020520;28;20037;-46
2023/03/10 04:59:14;;;;;;;3.47;1.10;;;12.70;77.70;;;;;;5000411;28;20038;-46
2023/03/10 05:01:46;;;;;;;3.80;1.75;;;12.70;77.70;;;;;;5003293;28;20240;-47
2023/03/10 05:04:13;;;;;;;7.63;2.17;;;12.70;77.60;;;;;;5005034;28;20764;-47
2023/03/10 05:06:42;;;;;;;6.28;1.48;;;12.70;77.50;;;;;;5014236;28;20514;-46
2023/03/10 05:09:27;;;;;;;4.65;1.77;;;12.70;77.30;;;;;;5002549;28;20061;-46
2023/03/10 05:11:56;;;;;;;4.60;1.50;;;12.70;77.20;;;;;;5008905;28;20053;-45
2023/03/10 05:14:24;;;;;;;6.53;2.17;;;12.70;77.30;;;;;;4997512;28;20046;-49
2023/03/10 05:16:51;;;;;;;3.75;1.45;;;12.60;77.40;;;;;;5007088;28;20083;-45
2023/03/10 05:19:21;;;;;;;5.57;1.65;;;12.60;77.60;;;;;;5025704;28;20072;-49
2023/03/10 05:21:55;;;;;;;5.97;1.90;;;12.60;77.60;;;;;;4991357;28;20042;-48
2023/03/10 05:24:21;;;;;;;8.55;2.20;;;12.60;77.70;;;;;;5008392;28;20111;-49
2023/03/10 05:26:48;;;;;;;5.10;1.95;;;12.60;77.70;;;;;;5010288;28;20041;-47
2023/03/10 05:29:19;;;;;;;5.35;2.22;;;12.60;77.70;;;;;;5016315;28;20046;-47
2023/03/10 05:31:51;;;;;;;;;;;12.60;77.70;;;;;;4990565;28;20099;-48
2023/03/10 05:34:25;;;;;;;5.47;1.65;;;12.70;77.90;;;;;;4987252;28;19926;-49
2023/03/10 05:36:55;;;;;;;3.95;1.38;;;12.60;77.60;;;;;;5003483;28;20034;-49
2023/03/10 05:39:23;;;;;;;5.35;1.95;;;12.60;77.60;;;;;;4987243;28;20105;-46
2023/03/10 05:41:53;;;;;;;5.55;1.73;;;12.60;77.70;;;;;;4991330;28;20073;-48
2023/03/10 05:44:21;;;;;;;4.05;1.92;;;12.60;77.80;;;;;;4991349;28;20066;-47
2023/03/10 05:46:50;;;;;;;7.72;1.92;;;12.60;77.80;;;;;;4990101;28;20050;-48
2023/03/10 05:49:18;;;;;;;5.43;1.70;;;12.60;77.90;;;;;;4981576;28;20042;-45
2023/03/10 05:51:44;;;;;;;6.78;1.88;;;12.70;78.00;;;;;;4985275;28;20045;-46
2023/03/10 05:54:11;;;;;;;5.28;2.33;;;12.60;77.90;;;;;;5006254;28;20042;-49
2023/03/10 05:56:38;;;;;;;4.57;2.47;;;12.60;77.90;;;;;;5009330;28;20061;-47
2023/03/10 05:59:05;;;;;;;6.57;2.33;;;12.60;77.90;;;;;;4989797;28;20161;-49
2023/03/10 06:01:35;;;;;;;3.22;1.65;;;12.60;78.00;;;;;;5009537;28;20406;-48
2023/03/10 06:04:02;;;;;;;4.47;1.85;;;12.60;78.00;;;;;;5013998;28;20056;-49
2023/03/10 06:06:29;;;;;;;3.53;1.70;;;12.70;78.10;;;;;;5012980;28;20034;-48
2023/03/10 06:08:56;;;;;;;5.78;1.98;;;12.60;78.10;;;;;;5018240;28;20045;-46
2023/03/10 06:11:23;;;;;;;10.32;2.08;;;12.60;78.10;;;;;;5016059;28;20052;-48
2023/03/10 06:13:50;;;;;;;7.25;1.83;;;12.70;78.10;;;;;;5009615;28;20058;-46
2023/03/10 06:16:17;;;;;;;4.47;1.80;;;12.70;78.10;;;;;;5008500;28;20521;-47
2023/03/10 06:18:44;;;;;;;9.50;2.60;;;12.70;78.10;;;;;;5007964;28;20070;-48
2023/03/10 06:21:13;;;;;;;5.78;2.08;;;12.60;78.00;;;;;;5010518;28;20068;-49
2023/03/10 06:23:40;;;;;;;5.78;1.65;;;12.60;78.00;;;;;;5021358;28;20049;-50
2023/03/10 06:26:11;;;;;;;4.95;1.85;;;12.60;78.00;;;;;;5024598;28;20042;-48
2023/03/10 06:28:40;;;;;;;6.93;2.30;;;12.60;78.00;;;;;;5026834;28;20076;-47
2023/03/10 06:31:11;;;;;;;7.35;2.28;;;12.60;78.00;;;;;;5007305;28;20068;-47
2023/03/10 06:33:38;;;;;;;3.72;2.60;;;12.60;78.10;;;;;;5027686;28;20875;-45
2023/03/10 06:36:05;;;;;;;4.68;1.60;;;12.60;78.00;;;;;;4993526;28;20052;-45
2023/03/10 06:38:32;;;;;;;3.85;2.05;;;12.60;78.10;;;;;;5002252;28;20548;-46
2023/03/10 06:40:59;;;;;;;4.20;1.67;;;12.70;78.20;;;;;;5009902;28;20077;-47
2023/03/10 06:43:25;;;;;;;2.10;1.20;;;12.70;78.30;;;;;;5007887;28;20540;-45
2023/03/10 06:45:54;;;;;;;4.25;1.27;;;12.70;78.40;;;;;;5018761;28;20122;-45
2023/03/10 06:48:21;;;;;;;5.20;1.33;;;12.70;78.30;;;;;;5016281;28;20077;-46
2023/03/10 06:50:49;;;;;;;2.72;1.27;;;12.70;78.20;;;;;;4994530;28;20042;-47
2023/03/10 06:53:18;;;;;;;4.88;1.50;;;12.70;78.20;;;;;;5006027;28;20068;-45
2023/03/10 06:55:55;;;;;;;3.92;1.77;;;12.70;78.20;;;;;;4989560;28;20125;-47
2023/03/10 06:58:22;;;;;;;4.25;2.17;;;12.70;78.20;;;;;;5005901;28;20105;-45
2023/03/10 07:00:49;;;;;;;3.25;2.15;;;12.70;78.30;;;;;;5012054;28;20049;-50
2023/03/10 07:03:15;;;;;;;4.10;2.30;;;12.80;79.00;;;;;;5017602;28;20120;-45
2023/03/10 07:05:42;;;;;;;2.17;1.60;;;12.80;78.40;;;;;;5010220;28;20097;-46
2023/03/10 07:08:09;;;;;;;5.55;2.45;;;12.80;78.30;;;;;;5015448;28;20051;-47
2023/03/10 07:10:35;;;;;;;4.35;1.65;;;12.80;78.30;;;;;;5004808;28;20477;-46
2023/03/10 07:13:02;;;;;;;6.10;1.65;;;12.80;78.20;;;;;;5029257;28;20052;-47
2023/03/10 07:15:29;;;;;;;2.63;1.60;;;12.80;78.20;;;;;;5018590;28;20065;-50
2023/03/10 07:17:56;;;;;;;2.35;1.88;;;12.90;78.40;;;;;;5020478;28;20030;-49
2023/03/10 07:20:23;;;;;;;2.97;1.63;;;12.90;78.30;;;;;;5013290;28;20033;-46
2023/03/10 07:22:50;;;;;;;3.33;1.60;;;12.90;78.20;;;;;;5018401;28;20067;-45
2023/03/10 07:25:17;;;;;;;4.55;2.10;;;12.90;78.00;;;;;;5026828;28;20045;-48
2023/03/10 07:27:47;;;;;;;2.08;1.65;;;12.90;78.00;;;;;;5030092;28;20045;-47
2023/03/10 07:30:14;;;;;;;4.28;1.65;;;12.90;77.90;;;;;;5005636;28;20132;-45
2023/03/10 07:32:41;;;;;;;6.47;1.88;;;12.90;77.80;;;;;;5022144;28;20045;-49
2023/03/10 07:35:08;;;;;;;5.05;1.88;;;12.90;77.90;;;;;;5029419;28;20038;-46
2023/03/10 07:37:39;;;;;;;5.18;2.13;;;12.90;77.90;;;;;;5020280;28;20629;-48
2023/03/10 07:40:07;;;;;;;4.45;1.83;;;13.00;78.00;;;;;;5009845;28;20050;-47
2023/03/10 07:42:34;;;;;;;4.97;2.33;;;13.00;78.00;;;;;;5011178;28;20660;-46
2023/03/10 07:45:01;;;;;;;4.25;2.22;;;13.00;78.00;;;;;;4993720;28;20053;-45
2023/03/10 07:47:27;;;;;;;5.90;2.70;;;13.00;78.00;;;;;;5028825;28;20516;-50
2023/03/10 07:49:54;;;;;;;3.00;2.13;;;13.00;78.00;;;;;;5011133;28;20042;-46
2023/03/10 07:52:20;;;;;;;4.50;1.70;;;13.10;78.00;;;;;;5015745;28;20731;-47
2023/03/10 07:54:47;;;;;;;3.35;2.20;;;13.10;78.00;;;;;;5027254;28;20056;-46
2023/03/10 07:57:15;;;;;;;4.30;2.08;;;13.20;77.90;;;;;;5030131;28;20056;-45
2023/03/10 07:59:42;;;;;;;6.65;2.25;;;13.20;77.80;;;;;;5014521;28;20429;-44
2023/03/10 08:02:11;;;;;;;6.22;3.10;;;13.20;77.80;;;;;;5017559;28;20054;-46
2023/03/10 08:04:39;;;;;;;5.25;2.58;;;13.30;77.80;;;;;;5021329;28;20145;-43
2023/03/10 08:07:09;;;;;;;5.03;2.40;;;13.30;77.80;;;;;;5013937;28;20474;-48
2023/03/10 08:09:36;;;;;;;4.45;2.55;;;13.40;77.80;;;;;;5007508;28;20119;-45
2023/03/10 08:12:06;;;;;;;7.03;2.30;;;13.40;77.70;;;;;;5015173;28;20073;-47
2023/03/10 08:14:32;;;;;;;6.70;1.90;;;13.50;77.70;;;;;;5008219;28;20096;-46
2023/03/10 08:16:59;;;;;;;4.28;2.60;;;13.50;77.60;;;;;;5007813;28;20481;-45
2023/03/10 08:19:27;;;;;;;6.93;2.85;;;13.50;77.40;;;;;;5008538;28;20044;-47
2023/03/10 08:21:56;;;;;;;4.15;1.67;;;13.60;77.20;;;;;;5006833;28;20038;-49
2023/03/10 08:24:24;;;;;;;4.40;1.75;;;13.60;77.20;;;;;;5003463;28;20860;-49
2023/03/10 08:26:50;;;;;;;5.93;1.42;;;13.70;77.10;;;;;;5002284;28;20466;-49
2023/03/10 08:29:17;;;;;;;3.65;1.80;;;13.70;76.80;;;;;;5004089;28;20072;-46
2023/03/10 08:31:44;;;;;;;4.90;1.80;;;13.80;76.60;;;;;;5009939;28;20073;-44
2023/03/10 08:34:12;;;;;;;6.15;1.95;;;13.90;76.40;;;;;;5017637;28;20577;-47
2023/03/10 08:36:39;;;;;;;6.22;2.38;;;13.90;76.30;;;;;;5009078;28;20030;-48
2023/03/10 08:39:07;;;;;;;6.22;2.10;;;13.90;76.00;;;;;;5003462;28;20046;-47
2023/03/10 08:41:41;;;;;;;7.25;2.70;;;13.90;75.90;;;;;;5003370;28;20042;-45
2023/03/10 08:44:10;;;;;;;6.57;2.10;;;13.90;75.70;;;;;;5008632;28;20056;-50
2023/03/10 08:46:37;;;;;;;6.68;2.17;;;13.90;75.50;;;;;;5018445;28;20042;-46
2023/03/10 08:49:04;;;;;;;5.43;2.15;;;13.90;75.60;;;;;;5004226;28;20050;-47
2023/03/10 08:51:30;;;;;;;6.32;2.47;;;13.90;75.80;;;;;;5006808;28;20453;-46
2023/03/10 08:53:58;;;;;;;8.50;2.03;;;13.80;75.70;;;;;;5009111;28;20049;-46
2023/03/10 08:56:25;;;;;;;8.77;2.50;;;13.80;75.70;;;;;;4999084;28;20038;-46
2023/03/10 08:58:55;;;;;;;7.28;2.17;;;13.80;75.80;;;;;;5008623;28;20038;-48
2023/03/10 09:01:26;;;;;;;8.30;2.10;;;13.90;75.80;;;;;;5006492;28;20075;-48
2023/03/10 09:03:56;;;;;;;6.78;2.25;;;13.90;75.70;;;;;;5012702;28;20044;-46
2023/03/10 09:06:22;;;;;;;8.55;2.58;;;13.90;75.60;;;;;;5009744;28;20042;-46
2023/03/10 09:08:49;;;;;;;3.88;2.30;;;13.90;75.50;;;;;;5005463;28;20034;-45
2023/03/10 09:11:24;;;;;;;5.40;2.40;;;14.00;75.60;;;;;;5008401;28;20073;-49
2023/03/10 09:13:51;;;;;;;14.95;3.92;;;14.10;75.60;;;;;;5009294;28;20073;-45
2023/03/10 09:16:20;;;;;;;8.07;2.33;;;14.10;75.40;;;;;;5009713;28;20077;-47
2023/03/10 09:18:47;;;;;;;4.95;2.22;;;14.20;75.30;;;;;;5005655;28;20053;-48
2023/03/10 09:21:16;;;;;;;11.75;3.40;;;14.20;75.20;;;;;;5006029;28;20041;-46
2023/03/10 09:23:46;;;;;;;4.72;2.17;;;14.30;75.20;;;;;;5003325;28;20081;-46
2023/03/10 09:26:15;;;;;;;7.90;2.77;;;14.40;75.00;;;;;;5006827;28;20046;-45
2023/03/10 09:28:42;;;;;;;4.88;2.63;;;14.60;74.70;;;;;;5001736;28;20049;-48
2023/03/10 09:31:16;;;;;;;5.50;2.28;;;14.70;74.20;;;;;;5007112;28;20383;-46
2023/03/10 09:33:43;;;;;;;8.52;1.67;;;14.70;73.20;;;;;;5002817;28;20490;-46
2023/03/10 09:36:11;;;;;;;6.40;2.05;;;14.80;73.40;;;;;;5004057;28;20080;-47
2023/03/10 09:38:40;;;;;;;5.93;2.15;;;14.90;73.20;;;;;;5000998;28;20402;-49
2023/03/10 09:41:26;;;;;;;8.88;2.28;;;15.00;72.70;;;;;;5007125;28;20056;-47
2023/03/10 09:44:01;;;;;;;8.13;2.00;;;15.00;71.10;;;;;;5003401;28;20038;-45
2023/03/10 09:46:41;;;;;;;7.30;2.20;;;15.10;72.40;;;;;;5005603;28;20061;-50
2023/03/10 09:49:40;;;;;;;4.63;1.85;;;15.10;71.30;;;;;;5007221;28;20046;-48
2023/03/10 09:52:27;;;;;;;5.95;3.05;;;15.20;71.00;;;;;;4948597;28;20059;-48
2023/03/10 09:55:05;;;;;;;11.93;3.80;;;15.20;70.70;;;;;;5014431;28;20048;-47
2023/03/10 09:57:33;;;;;;;12.35;6.32;;;15.20;71.30;;;;;;5017441;28;20061;-46
2023/03/10 10:00:07;;;;;;;9.05;5.75;;;15.30;71.20;;;;;;5001281;28;20062;-46
2023/03/10 10:02:40;;;;;;;8.73;4.57;;;15.30;71.10;;;;;;4994923;28;20035;-46
2023/03/10 10:05:15;;;;;;;9.75;4.20;;;15.30;71.10;;;;;;5007984;28;20055;-45
2023/03/10 10:07:49;;;;;;;6.82;2.95;;;15.40;70.80;;;;;;5009373;28;20053;-48
2023/03/10 10:10:35;;;;;;;6.00;3.47;;;15.40;70.90;;;;;;5002041;28;20137;-47
2023/03/10 10:13:14;;;;;;;5.80;2.22;;;15.50;70.20;;;;;;5017222;28;20411;-46
2023/03/10 10:15:45;;;;;;;8.18;2.40;;;15.50;69.30;;;;;;5002830;28;20044;-46
2023/03/10 10:18:21;;;;;;;5.60;2.97;;;15.50;69.70;;;;;;5003173;28;20038;-49
2023/03/10 10:21:15;;;;;;;5.78;2.00;;;15.60;69.40;;;;;;5010345;28;21174;-47
2023/03/10 10:23:49;;;;;;;4.43;1.55;;;15.50;67.80;;;;;;5002278;28;20653;-46
2023/03/10 10:26:18;;;;;;;4.68;1.50;;;15.60;68.50;;;;;;5017835;28;20045;-48
2023/03/10 10:29:10;;;;;;;3.08;1.33;;;15.50;68.90;;;;;;5008821;28;20558;-46
2023/03/10 10:31:39;;;;;;;3.53;1.20;;;15.50;67.70;;;;;;5002318;28;20038;-46
2023/03/10 10:34:19;;;;;;;4.68;1.60;;;15.50;68.20;;;;;;5005261;28;20060;-46
2023/03/10 10:36:50;;;;;;;3.72;1.60;;;15.50;68.20;;;;;;5009775;28;20046;-47
2023/03/10 10:39:31;;;;;;;3.30;2.08;;;15.40;68.80;;;;;;4985411;28;20503;-46
2023/03/10 10:42:24;;;;;;;4.43;2.03;;;15.50;68.50;;;;;;5009454;28;20486;-46
2023/03/10 10:44:52;;;;;;;;;;;15.50;68.10;;;;;;5007700;28;20099;-48
2023/03/10 10:47:49;;;;;;;3.60;1.48;;;15.50;69.10;;;;;;5009715;28;19929;-45
2023/03/10 10:50:23;;;;;;;5.85;1.60;;;15.50;68.00;;;;;;5012519;28;20053;-47
2023/03/10 10:53:12;;;;;;;8.20;2.33;;;15.50;68.30;;;;;;5008624;28;20053;-45
2023/03/10 10:55:40;;;;;;;4.45;0.95;;;15.40;68.80;;;;;;5009362;28;20402;-50
2023/03/10 10:58:29;;;;;;;4.45;1.45;;;15.30;69.10;;;;;;5008392;28;20125;-50
2023/03/10 11:01:00;;;;;;;3.83;1.92;;;15.30;68.70;;;;;;5008079;28;20042;-48
2023/03/10 11:03:36;;;;;;;4.57;1.73;;;15.30;69.50;;;;;;5010391;28;20057;-46
2023/03/10 11:06:23;;;;;;;6.20;1.52;;;15.20;69.30;;;;;;5015077;28;20100;-48
2023/03/10 11:08:51;;;;;;;3.55;1.20;;;15.10;69.50;;;;;;5008095;28;20046;-50
2023/03/10 11:11:24;;;;;;;3.80;1.35;;;15.00;69.70;;;;;;5012562;28;20069;-45
2023/03/10 11:14:11;;;;;;;3.95;1.10;;;14.90;70.10;;;;;;4993450;28;20497;-48
2023/03/10 11:17:00;;;;;;;3.08;1.65;;;14.80;70.40;;;;;;5000800;28;20038;-50
2023/03/10 11:20:05;;;;;;;2.08;1.02;;;14.70;71.10;;;;;;5008127;28;20046;-46
2023/03/10 11:23:04;;;;;;;3.88;2.72;;;14.60;71.60;;;;;;5005665;28;20129;-47
2023/03/10 11:25:37;;;;;;;3.03;1.88;;;14.60;72.00;;;;;;5010701;28;20118;-46
2023/03/10 11:28:13;;;;;;;5.07;1.85;;;14.50;72.20;;;;;;5010996;28;20057;-46
2023/03/10 11:30:48;;;;;;;3.47;1.60;;;14.50;72.80;;;;;;5008579;28;20046;-47
2023/03/10 11:33:34;;;;;;;2.40;1.52;;;14.50;73.10;;;;;;5009702;28;20045;-45
2023/03/10 11:36:43;;;;;;;1.90;1.25;;;14.50;73.20;;;;;;5005243;28;20491;-48
2023/03/10 11:39:47;;;;;;;2.30;1.10;;;14.50;73.00;;;;;;4994894;28;20030;-46
2023/03/10 11:42:26;;;;;;;;;;;14.60;73.40;;;;;;5008111;28;20667;-46
2023/03/10 11:45:18;;;;;;;2.25;0.90;;;14.60;73.10;;;;;;5002281;28;20029;-45
2023/03/10 11:47:49;;;;;;;1.52;0.47;;;14.60;72.90;;;;;;5006330;28;20050;-45
2023/03/10 11:51:04;;;;;;;1.42;0.65;;;14.60;72.80;;;;;;5007765;28;20437;-46
2023/03/10 11:53:44;;;;;;;0.60;0.45;;;14.60;72.80;;;;;;4994910;28;20562;-45
2023/03/10 11:56:14;;;;;;;1.05;0.77;;;14.60;72.80;;;;;;5002683;28;20416;-47
2023/03/10 11:58:52;;;;;;;2.00;0.68;;;14.50;73.00;;;;;;5001950;28;20034;-50
2023/03/10 12:01:31;;;;;;;1.00;0.60;;;14.50;73.20;;;;;;4987801;28;20038;-48
2023/03/10 12:04:16;;;;;;;2.15;0.60;;;14.50;73.30;;;;;;5005854;28;20034;-47
2023/03/10 12:07:09;;;;;;;0.38;0.30;;;14.50;73.60;;;;;;5005113;28;20080;-50
2023/03/10 12:10:07;;;;;;;2.65;0.80;;;14.50;73.50;;;;;;5001684;28;20438;-45
2023/03/10 12:12:36;;;;;;;1.25;0.47;;;14.50;73.40;;;;;;5003519;28;20125;-47
2023/03/10 12:15:22;;;;;;;0.70;0.30;;;14.50;73.60;;;;;;5008247;28;20045;-46
2023/03/10 12:17:51;;;;;;;1.02;0.50;;;14.50;73.50;;;;;;5003813;28;20125;-47
2023/03/10 12:20:18;;;;;;;0.75;0.75;;;14.40;73.70;;;;;;5010672;28;20144;-45
2023/03/10 12:22:56;;;;;;;0.88;0.43;;;14.40;73.90;;;;;;5006761;28;20045;-45
2023/03/10 12:25:28;;;;;;;0.77;0.60;;;14.40;74.50;;;;;;5010188;28;20064;-50
2023/03/10 12:28:23;;;;;;;0.40;0.35;;;14.40;74.70;;;;;;5017502;28;20116;-48
2023/03/10 12:31:09;;;;;;;0.35;0.30;;;14.40;74.80;;;;;;4993161;28;20073;-45
2023/03/10 12:33:40;;;;;;;0.65;0.57;;;14.40;74.60;;;;;;5010851;28;20084;-47
2023/03/10 12:36:30;;;;;;;0.30;0.30;;;14.40;74.30;;;;;;5010548;28;20072;-47
2023/03/10 12:39:25;;;;;;;0.80;0.40;;;14.40;74.50;;;;;;5001540;28;20042;-45
2023/03/10 12:41:55;;;;;;;0.40;0.40;;;14.40;74.70;;;;;;5009323;28;20037;-47
2023/03/10 12:44:48;;;;;;;0.85;0.40;;;14.30;74.50;;;;;;5011730;28;20046;-45
2023/03/10 12:47:36;;;;;;;0.20;0.20;;;14.30;74.80;;;;;;5022292;28;20080;-48
2023/03/10 12:50:28;;;;;;;1.25;0.32;;;14.30;75.10;;;;;;5005692;28;20049;-46
2023/03/10 12:53:10;;;;;;;0.40;0.40;;;14.20;75.30;;;;;;5006623;28;20034;-47
2023/03/10 12:55:39;;;;;;;;;;;14.20;75.20;;;;;;5020754;28;20037;-47
2023/03/10 12:58:20;;;;;;;0.35;0.35;;;14.30;75.20;;;;;;5008587;28;19991;-46
2023/03/10 13:01:02;;;;;;;2.72;0.70;;;14.20;74.80;;;;;;5004793;28;20061;-46
2023/03/10 13:03:50;;;;;;;0.50;0.50;;;14.20;74.90;;;;;;5010780;28;20120;-48
2023/03/10 13:06:31;;;;;;;1.13;0.80;;;14.20;75.20;;;;;;5008862;28;20038;-47
2023/03/10 13:09:31;;;;;;;10.13;8.43;;;14.20;75.40;;;;;;5007394;28;20514;-46
2023/03/10 13:12:02;;;;;;;4.25;3.40;;;14.10;75.70;;;;;;5005478;28;20038;-47
2023/03/10 13:14:38;;;;;;;1.83;1.73;;;14.10;75.60;;;;;;5009939;28;20053;-47
2023/03/10 13:17:08;;;;;;;1.90;1.80;;;14.10;76.20;;;;;;5008747;28;20038;-49